Latest Weather Observations for Applethorpe

IDQ60801

Issued at 7:02 pm EST Tuesday 7 July 2015 (issued every 30 minutes, with the page automatically refreshed every 10 minutes)

About weather observations | Map of weather stations | Latest weather observations for QLD | Other Formats
Station Details ID: 041175 Name: APPLETHORPE Lat: -28.62 Lon: 151.95 Height: 871.6 m
Data from the previous 72 hours. | See also: Recent months at Applethorpe
Date/Time
EST
Temp
°C
App
Temp
°C
Dew
Point
Rel
Hum
%
Delta-T
°C
Wind Press
QNH
hPa
Press
MSL
hPa
Rain
since 9 am
mm
Dir
 
Spd
km/h
Gust
km/h
Spd
kts
Gust
kts
07/07:00pm 4.1 2.2 0.6 78 1.4 CALM 0 2 0 1 1021.2 1021.4 0.0
07/06:00pm 6.4 4.2 0.9 68 2.3 SW 2 2 1 1 1020.6 1020.8 0.0
07/05:30pm 8.6 5.5 0.0 55 3.6 WSW 6 9 3 5 1020.2 1020.4 0.0
07/05:00pm 10.0 6.8 -0.8 47 4.5 WSW 6 9 3 5 1019.9 1020.1 0.0
07/04:30pm 11.9 8.1 -3.7 33 6.2 WSW 7 17 4 9 1019.4 1019.6 0.0
07/04:00pm 13.2 8.8 -5.8 26 7.3 SW 9 17 5 9 1019.1 1019.3 0.0
07/03:30pm 13.7 8.1 -6.1 25 7.6 SW 15 24 8 13 1018.8 1019.0 0.0
07/03:00pm 14.8 9.6 -6.5 22 8.2 WSW 13 22 7 12 1018.6 1018.7 0.0
07/02:30pm 14.8 9.5 -7.5 21 8.4 WSW 13 28 7 15 1018.5 1018.6 0.0
07/02:00pm 15.4 10.6 -6.0 22 8.4 SSW 11 19 6 10 1018.2 1018.4 0.0
07/01:30pm 15.5 11.1 -5.8 22 8.4 WSW 9 17 5 9 1018.3 1018.5 0.0
07/01:00pm 15.2 10.3 -7.0 21 8.5 SSW 11 19 6 10 1018.5 1018.6 0.0
07/12:30pm 15.0 9.6 -8.0 19 8.6 SW 13 20 7 11 1018.6 1018.7 0.0
07/12:00pm 14.8 9.3 -9.1 18 8.7 SW 13 20 7 11 1018.9 1019.1 0.0
07/11:30am 14.6 9.6 -8.0 20 8.4 SW 11 19 6 10 1019.1 1019.3 0.0
07/11:00am 13.5 8.5 -8.6 20 8.0 SSW 11 19 6 10 1019.3 1019.5 0.0
07/10:30am 12.7 8.1 -7.4 24 7.4 SW 9 17 5 9 1019.7 1019.8 0.0
07/10:00am 11.2 6.8 -5.9 29 6.4 SW 9 17 5 9 1019.9 1020.1 0.0
07/09:00am 8.2 4.7 -2.9 45 4.3 SW 6 9 3 5 1020.0 1020.2 0.0
07/08:30am 6.4 3.0 -2.4 53 3.4 WSW 6 9 3 5 1019.7 1019.8 0.0
07/08:27am 5.9 2.6 -1.2 60 2.8 WSW 6 7 3 4 1019.7 1019.8 0.0
07/08:00am 0.8 -1.3 -0.5 91 0.5 CALM 0 0 0 0 1019.5 1019.7 0.0
07/07:30am -0.8 - - - - N 2 2 1 1 1019.4 1019.6 0.0
07/07:00am -1.7 - - - - CALM 0 2 0 1 1019.1 1019.3 0.0
07/06:30am -2.0 - - - - CALM 0 0 0 0 1018.6 1018.7 0.0
07/06:00am -1.5 - - - - CALM 0 0 0 0 1018.3 1018.5 0.0
07/05:00am -0.7 - - - - CALM 0 0 0 0 1017.6 1017.7 0.0
07/04:30am -0.1 - - - - CALM 0 0 0 0 1017.5 1017.6 0.0
07/04:00am 0.7 -1.3 0.2 96 0.2 CALM 0 0 0 0 1017.6 1017.7 0.0
07/03:30am 2.1 -0.5 0.8 91 0.5 SW 4 6 2 3 1017.7 1017.8 0.0
07/03:00am 4.9 1.9 1.0 76 1.6 SW 6 7 3 4 1017.7 1017.8 0.0
07/02:30am 5.4 2.3 1.3 75 1.7 WSW 7 13 4 7 1017.8 1018.0 0.0
07/02:00am 5.9 2.5 1.9 75 1.7 WSW 9 15 5 8 1017.9 1018.1 0.0
07/01:30am 6.2 2.9 2.5 77 1.6 WSW 9 15 5 8 1017.9 1018.1 0.0
07/01:00am 6.4 3.2 3.0 79 1.5 WSW 9 13 5 7 1018.0 1018.2 0.0
07/12:30am 6.8 3.7 3.4 79 1.5 WSW 9 15 5 8 1018.0 1018.2 0.0
07/12:00am 6.7 3.6 3.6 80 1.4 W 9 13 5 7 1018.0 1018.2 0.0
 
Date/Time
EST
Temp
°C
App
Temp
°C
Dew
Point
Rel
Hum
%
Delta-T
°C
Wind Press
QNH
hPa
Press
MSL
hPa
Rain
since 9 am
mm
Dir
 
Spd
km/h
Gust
km/h
Spd
kts
Gust
kts
06/11:30pm 7.4 4.3 3.6 77 1.7 W 9 15 5 8 1017.9 1018.1 0.0
06/11:00pm 7.5 4.1 4.0 78 1.6 W 11 15 6 8 1018.0 1018.2 0.0
06/10:30pm 8.0 4.6 4.1 76 1.8 W 11 17 6 9 1018.1 1018.3 0.0
06/10:00pm 8.4 5.0 4.0 74 2.0 W 11 15 6 8 1018.2 1018.4 0.0
06/09:30pm 8.8 5.5 4.3 73 2.1 W 11 17 6 9 1018.3 1018.5 0.0
06/09:00pm 9.2 6.2 4.2 71 2.3 W 9 13 5 7 1018.1 1018.3 0.0
06/08:30pm 9.8 6.5 4.5 69 2.5 W 11 20 6 11 1018.1 1018.3 0.0
06/08:00pm 10.1 6.9 5.1 71 2.4 W 11 19 6 10 1017.9 1018.1 0.0
06/07:30pm 10.5 7.2 4.6 67 2.8 WSW 11 19 6 10 1017.9 1018.1 0.0
06/07:00pm 10.8 7.4 4.2 64 3.1 WSW 11 19 6 10 1018.0 1018.2 0.0
06/06:30pm 11.5 7.6 3.6 58 3.7 W 13 17 7 9 1017.9 1018.1 0.0
06/06:00pm 11.6 8.1 3.7 58 3.7 WSW 11 17 6 9 1017.7 1017.8 0.0
06/05:30pm 12.2 8.7 3.7 56 4.0 W 11 20 6 11 1017.5 1017.6 0.0
06/05:00pm 12.8 9.4 3.9 54 4.2 W 11 20 6 11 1017.4 1017.5 0.0
06/04:30pm 13.8 10.1 4.5 53 4.5 WSW 13 19 7 10 1017.2 1017.3 0.0
06/04:00pm 15.0 10.9 4.3 48 5.2 W 15 24 8 13 1017.0 1017.2 0.0
06/03:30pm 14.9 10.4 4.2 48 5.2 W 17 28 9 15 1016.9 1017.1 0.0
06/03:00pm 14.1 9.9 3.9 50 4.9 W 15 30 8 16 1017.2 1017.3 0.0
06/02:30pm 14.8 10.3 4.3 49 5.1 W 17 30 9 16 1017.3 1017.4 0.0
06/02:00pm 15.6 11.5 4.6 48 5.4 W 15 30 8 16 1017.4 1017.5 0.0
06/01:30pm 15.1 10.0 4.2 48 5.3 W 20 37 11 20 1017.6 1017.7 0.0
06/01:00pm 14.9 10.4 4.4 49 5.1 WSW 17 33 9 18 1017.9 1018.1 0.0
06/12:30pm 14.8 10.4 4.5 50 5.0 WSW 17 32 9 17 1018.3 1018.5 0.0
06/12:00pm 14.5 9.6 3.9 49 5.1 WSW 19 30 10 16 1018.9 1019.1 0.0
06/11:30am 14.5 10.1 4.7 52 4.8 W 17 32 9 17 1019.3 1019.5 0.0
06/11:00am 13.5 9.4 4.6 55 4.3 WSW 15 30 8 16 1019.7 1019.8 0.0
06/10:30am 13.7 10.1 5.1 56 4.2 W 13 28 7 15 1020.0 1020.2 0.0
06/10:00am 13.2 10.0 5.2 58 3.9 W 11 28 6 15 1020.3 1020.5 0.0
06/09:30am 12.3 8.7 5.1 61 3.5 WNW 13 22 7 12 1020.5 1020.7 0.0
06/09:00am 11.1 8.9 5.3 67 2.8 WSW 6 11 3 6 1020.4 1020.6 0.0
06/08:30am 9.2 7.1 5.6 78 1.7 SW 6 7 3 4 1020.4 1020.6 0.0
06/08:00am 7.2 5.3 5.0 86 1.0 SW 4 6 2 3 1020.5 1020.7 0.0
06/07:30am 4.3 2.1 3.4 94 0.4 WSW 4 6 2 3 1020.4 1020.6 0.0
06/07:00am 2.1 -0.4 1.4 95 0.3 W 4 6 2 3 1020.2 1020.4 0.0
06/06:30am 1.0 -1.6 0.7 98 0.1 SW 4 6 2 3 1020.0 1020.2 0.0
06/06:00am 1.5 -0.7 1.0 96 0.2 WSW 2 4 1 2 1019.8 1020.0 0.0
06/05:30am 1.5 -1.1 0.7 94 0.3 W 4 7 2 4 1019.9 1020.1 0.0
06/05:00am 0.6 -1.7 0.1 96 0.2 W 2 4 1 2 1019.8 1020.0 0.0
06/04:30am 0.1 - - - - CALM 0 2 0 1 1019.8 1020.0 0.0
06/04:00am 0.3 - - - - CALM 0 2 0 1 1019.9 1020.1 0.0
06/03:30am -0.4 - - - - CALM 0 0 0 0 1020.1 1020.3 0.0
06/03:00am 0.1 - - - - CALM 0 0 0 0 1020.5 1020.7 0.0
06/02:30am 0.6 -1.4 0.1 96 0.2 CALM 0 0 0 0 1020.5 1020.7 0.0
06/02:00am 0.5 -1.5 0.2 98 0.1 CALM 0 0 0 0 1020.9 1021.1 0.0
06/01:30am 0.6 -1.3 0.3 98 0.1 CALM 0 0 0 0 1021.1 1021.3 0.0
06/01:00am 0.7 -1.3 0.2 96 0.2 CALM 0 0 0 0 1021.2 1021.4 0.0
06/12:30am 0.7 -1.2 0.4 98 0.1 CALM 0 0 0 0 1021.2 1021.4 0.0
06/12:00am 1.3 -0.6 0.8 96 0.2 CALM 0 0 0 0 1021.3 1021.5 0.0
 
Date/Time
EST
Temp
°C
App
Temp
°C
Dew
Point
Rel
Hum
%
Delta-T
°C
Wind Press
QNH
hPa
Press
MSL
hPa
Rain
since 9 am
mm
Dir
 
Spd
km/h
Gust
km/h
Spd
kts
Gust
kts
05/11:30pm 1.4 -0.5 0.6 94 0.3 CALM 0 0 0 0 1021.6 1021.8 0.0
05/11:00pm 1.6 -0.6 0.8 94 0.3 NE 2 4 1 2 1021.6 1021.8 0.0
05/10:30pm 1.8 -0.4 1.0 94 0.3 NE 2 4 1 2 1021.8 1022.1 0.0
05/10:00pm 2.0 0.2 1.5 96 0.2 CALM 0 0 0 0 1022.0 1022.3 0.0
05/09:30pm 2.4 0.7 1.9 96 0.2 CALM 0 0 0 0 1022.2 1022.4 0.0
05/09:00pm 2.7 1.0 2.0 95 0.3 CALM 0 0 0 0 1022.2 1022.4 0.0
05/08:30pm 3.3 1.7 2.6 95 0.3 CALM 0 0 0 0 1022.2 1022.4 0.0
05/08:00pm 3.6 2.1 2.9 95 0.3 CALM 0 2 0 1 1021.8 1022.1 0.0
05/07:30pm 4.0 2.5 3.1 94 0.4 CALM 0 0 0 0 1021.8 1022.1 0.0
05/07:00pm 5.1 3.7 3.7 91 0.6 CALM 0 2 0 1 1021.7 1022.0 0.0
05/06:30pm 6.1 4.8 3.9 86 1.0 CALM 0 2 0 1 1021.4 1021.6 0.0
05/06:00pm 7.3 6.0 4.2 81 1.4 CALM 0 0 0 0 1021.3 1021.5 0.0
05/05:30pm 9.5 7.9 4.6 71 2.3 WNW 2 6 1 3 1021.4 1021.6 0.0
05/05:00pm 11.1 8.7 4.1 62 3.3 W 6 11 3 6 1021.1 1021.3 0.0
05/04:30pm 12.3 9.8 3.8 56 4.0 WSW 6 7 3 4 1021.0 1021.2 0.0
05/04:00pm 13.1 9.5 3.0 50 4.7 W 11 22 6 12 1021.1 1021.3 0.0
05/03:30pm 13.7 10.6 3.6 50 4.8 W 9 19 5 10 1021.0 1021.2 0.0
05/03:00pm 14.7 11.4 2.2 43 5.8 WNW 9 15 5 8 1021.1 1021.3 0.0
05/02:30pm 15.4 11.8 2.9 43 5.9 W 11 20 6 11 1021.1 1021.3 0.0
05/02:00pm 15.3 12.5 3.1 44 5.8 W 7 17 4 9 1021.3 1021.5 0.0
05/01:30pm 15.1 11.6 3.3 45 5.6 W 11 22 6 12 1021.4 1021.6 0.0
05/01:00pm 14.9 11.3 3.0 44 5.6 W 11 22 6 12 1021.6 1021.8 0.0
05/12:30pm 14.8 10.9 3.5 46 5.4 W 13 20 7 11 1021.9 1022.2 0.0
05/12:00pm 14.4 10.8 3.2 47 5.3 WNW 11 20 6 11 1022.4 1022.6 0.0
05/11:30am 14.1 10.1 3.0 47 5.2 W 13 22 7 12 1023.0 1023.3 0.0
05/11:00am 14.8 11.7 3.7 47 5.3 W 9 24 5 13 1023.4 1023.6 0.0
05/10:30am 13.5 10.0 3.3 50 4.8 WNW 11 26 6 14 1023.7 1024.0 0.0
05/10:00am 13.1 10.0 3.8 53 4.4 W 9 19 5 10 1023.7 1024.0 0.0
05/09:30am 12.0 9.5 4.7 61 3.5 WNW 7 13 4 7 1023.8 1024.1 0.0
05/09:00am 9.1 8.1 7.3 88 0.9 NW 2 7 1 4 1023.7 1024.0 0.0
05/08:30am 5.3 4.1 4.6 95 0.3 CALM 0 0 0 0 1023.7 1024.0 0.0
05/08:00am 3.1 1.5 2.4 95 0.3 CALM 0 0 0 0 1023.4 1023.6 0.0
05/07:30am 0.9 -1.0 0.4 96 0.2 CALM 0 0 0 0 1023.2 1023.5 0.0
05/07:00am 0.1 - - - - CALM 0 0 0 0 1022.9 1023.2 0.0
05/06:30am 0.2 - - - - CALM 0 0 0 0 1022.7 1023.0 0.0
05/06:00am 0.5 -1.5 0.0 96 0.2 CALM 0 0 0 0 1022.6 1022.8 0.0
05/05:30am -0.1 - - - - CALM 0 0 0 0 1022.4 1022.6 0.0
05/05:00am -0.2 - - - - CALM 0 0 0 0 1022.2 1022.4 0.0
05/04:30am -0.4 - - - - CALM 0 0 0 0 1021.9 1022.2 0.0
05/04:00am -0.1 - - - - CALM 0 0 0 0 1022.2 1022.4 0.0
05/03:30am 0.2 - - - - CALM 0 0 0 0 1022.3 1022.5 0.0
05/03:00am 0.3 - - - - CALM 0 0 0 0 1022.5 1022.7 0.0
05/02:30am 0.4 -1.6 0.1 98 0.1 CALM 0 0 0 0 1022.6 1022.8 0.0
05/02:00am 0.1 - - - - CALM 0 0 0 0 1022.9 1023.2 0.0
05/01:30am -0.1 - - - - NE 2 2 1 1 1022.9 1023.2 0.0
05/01:00am 0.0 - - - - NE 2 2 1 1 1023.0 1023.3 0.0
05/12:30am 0.3 - - - - CALM 0 0 0 0 1022.9 1023.2 0.0
05/12:00am 0.4 -1.6 0.1 98 0.1 CALM 0 0 0 0 1022.9 1023.2 0.0
 
Date/Time
EST
Temp
°C
App
Temp
°C
Dew
Point
Rel
Hum
%
Delta-T
°C
Wind Press
QNH
hPa
Press
MSL
hPa
Rain
since 9 am
mm
Dir
 
Spd
km/h
Gust
km/h
Spd
kts
Gust
kts
04/11:30pm 0.8 -1.1 0.5 98 0.1 CALM 0 0 0 0 1023.1 1023.4 0.0
04/11:00pm 0.8 -1.1 0.5 98 0.1 CALM 0 0 0 0 1023.2 1023.5 0.0
04/10:30pm 1.2 -0.7 0.7 96 0.2 CALM 0 0 0 0 1023.1 1023.4 0.0
04/10:00pm 1.3 -0.5 1.0 98 0.1 CALM 0 0 0 0 1023.0 1023.3 0.0
04/09:30pm 1.6 -0.2 1.1 96 0.2 CALM 0 0 0 0 1023.4 1023.6 0.0
04/09:00pm 2.2 0.5 1.7 96 0.2 CALM 0 0 0 0 1023.4 1023.6 0.0
04/08:30pm 2.5 0.8 1.8 95 0.3 CALM 0 0 0 0 1023.2 1023.5 0.0
04/08:00pm 2.9 1.3 2.2 95 0.3 CALM 0 0 0 0 1023.2 1023.5 0.0
04/07:30pm 3.7 2.2 3.0 95 0.3 CALM 0 0 0 0 1023.0 1023.3 0.0

Other Formats:

Comma delimited format used in spreadsheet applications
http://www.bom.gov.au/fwo/IDQ60801/IDQ60801.94553.axf

JavaScript Object Notation format (JSON) in row-major order
http://www.bom.gov.au/fwo/IDQ60801/IDQ60801.94553.json